Time;durP1;ratioP1;P1;durP2;ratioP2;P2;SDS_P1;SDS_P2;PMS_P1;PMS_P2;Temp;Humidity;BMP_temperature;BMP_pressure;BME280_temperature;BME280_humidity;BME280_pressure;Samples;Min_cycle;Max_cycle;Signal;HPM_P1;HPM_P2
2023/08/02 00:00:33;;;;;;;21.53;20.13;;;;;;;;;;5031906;28;20952;-44
2023/08/02 00:03:00;;;;;;;20.90;19.80;;;;;;;;;;5031756;28;20475;-42
2023/08/02 00:05:28;;;;;;;22.70;21.50;;;;;;;;;;5031084;28;20476;-46
2023/08/02 00:07:56;;;;;;;21.57;20.37;;;;;;;;;;5031759;28;20460;-44
2023/08/02 00:10:23;;;;;;;22.80;21.63;;;;;;;;;;5031790;28;20472;-42
2023/08/02 00:12:52;;;;;;;22.00;20.70;;;;;;;;;;5031814;28;20468;-46
2023/08/02 00:15:20;;;;;;;22.00;20.80;;;;;;;;;;5031443;28;20467;-45
2023/08/02 00:17:48;;;;;;;24.70;22.90;;;;;;;;;;5032103;28;20490;-44
2023/08/02 00:20:16;;;;;;;22.77;21.40;;;;;;;;;;5032036;28;20435;-43
2023/08/02 00:22:44;;;;;;;23.40;21.90;;;;;;;;;;5031605;28;20444;-43
2023/08/02 00:25:11;;;;;;;22.57;21.57;;;;;;;;;;5031232;28;21052;-44
2023/08/02 00:27:39;;;;;;;24.17;22.77;;;;;;;;;;5031729;28;20439;-44
2023/08/02 00:30:07;;;;;;;24.83;23.50;;;;;;;;;;5032047;28;20436;-43
2023/08/02 00:32:43;;;;;;;24.73;22.70;;;;;;;;;;5031780;28;20432;-45
2023/08/02 00:35:12;;;;;;;23.17;21.80;;;;;;;;;;5031229;28;20471;-43
2023/08/02 00:37:39;;;;;;;23.17;22.00;;;;;;;;;;5031693;28;20811;-43
2023/08/02 00:40:07;;;;;;;22.47;21.50;;;;;;;;;;5031533;28;20486;-43
2023/08/02 00:42:36;;;;;;;22.67;21.37;;;;;;;;;;5031644;28;20424;-43
2023/08/02 00:45:04;;;;;;;21.57;20.47;;;;;;;;;;5030969;28;20518;-46
2023/08/02 00:47:31;;;;;;;25.30;23.43;;;;;;;;;;5031853;28;20463;-43
2023/08/02 00:50:00;;;;;;;22.20;20.83;;;;;;;;;;5031842;28;20424;-43
2023/08/02 00:52:28;;;;;;;22.97;21.80;;;;;;;;;;5031522;28;20432;-42
2023/08/02 00:54:56;;;;;;;22.10;21.17;;;;;;;;;;5030965;28;20552;-43
2023/08/02 00:57:23;;;;;;;23.90;22.90;;;;;;;;;;5034182;28;20431;-43
2023/08/02 00:59:51;;;;;;;24.57;23.00;;;;;;;;;;5035443;28;20498;-45
2023/08/02 01:02:18;;;;;;;23.70;22.73;;;;;;;;;;5035459;28;20494;-43
2023/08/02 01:04:46;;;;;;;24.83;23.10;;;;;;;;;;5034835;28;20463;-45
2023/08/02 01:07:17;;;;;;;25.63;24.30;;;;;;;;;;5035531;28;20551;-43
2023/08/02 01:09:48;;;;;;;25.83;24.73;;;;;;;;;;5035367;28;20591;-45
2023/08/02 01:12:16;;;;;;;23.73;22.60;;;;;;;;;;5035088;28;20490;-44
2023/08/02 01:14:46;;;;;;;24.10;22.70;;;;;;;;;;5035127;28;20470;-43
2023/08/02 01:17:24;;;;;;;24.53;23.43;;;;;;;;;;5035362;28;20419;-43
2023/08/02 01:19:52;;;;;;;22.87;21.77;;;;;;;;;;5035485;28;20524;-44
2023/08/02 01:22:21;;;;;;;21.97;21.07;;;;;;;;;;5034669;28;20506;-43
2023/08/02 01:24:48;;;;;;;24.97;23.83;;;;;;;;;;5033698;28;21008;-43
2023/08/02 01:27:18;;;;;;;24.00;23.10;;;;;;;;;;5035016;28;20462;-47
2023/08/02 01:29:47;;;;;;;24.57;23.00;;;;;;;;;;5035112;28;20830;-46
2023/08/02 01:32:15;;;;;;;23.50;22.13;;;;;;;;;;5034387;28;20498;-45
2023/08/02 01:34:43;;;;;;;22.97;22.00;;;;;;;;;;5034399;28;20869;-45
2023/08/02 01:37:10;;;;;;;24.67;23.67;;;;;;;;;;5034961;28;20436;-43
2023/08/02 01:39:39;;;;;;;23.37;22.37;;;;;;;;;;5034714;28;20818;-43
2023/08/02 01:42:07;;;;;;;22.60;21.70;;;;;;;;;;5034886;28;20432;-44
2023/08/02 01:44:34;;;;;;;22.30;21.30;;;;;;;;;;5034155;28;20484;-45
2023/08/02 01:47:02;;;;;;;24.00;22.80;;;;;;;;;;5035086;28;20530;-43
2023/08/02 01:49:30;;;;;;;26.20;24.90;;;;;;;;;;5034694;28;20505;-45
2023/08/02 01:51:57;;;;;;;23.53;22.30;;;;;;;;;;5034434;28;20924;-44
2023/08/02 01:54:25;;;;;;;24.17;22.97;;;;;;;;;;5033958;28;20472;-43
2023/08/02 01:56:53;;;;;;;23.60;22.53;;;;;;;;;;5034660;28;20511;-43
2023/08/02 01:59:21;;;;;;;23.40;22.30;;;;;;;;;;5034615;28;20530;-43
2023/08/02 02:01:48;;;;;;;25.07;23.57;;;;;;;;;;5033936;28;20436;-46
2023/08/02 02:04:16;;;;;;;24.47;23.27;;;;;;;;;;5033444;28;20541;-43
2023/08/02 02:06:43;;;;;;;23.83;22.73;;;;;;;;;;5033999;28;20996;-44
2023/08/02 02:09:11;;;;;;;25.30;24.07;;;;;;;;;;5033499;28;20444;-48
2023/08/02 02:11:39;;;;;;;26.20;24.60;;;;;;;;;;5034264;28;20551;-42
2023/08/02 02:14:09;;;;;;;25.27;23.57;;;;;;;;;;5033781;28;20862;-42
2023/08/02 02:16:36;;;;;;;24.87;23.60;;;;;;;;;;5033918;28;20432;-43
2023/08/02 02:19:04;;;;;;;25.83;24.27;;;;;;;;;;5033923;28;20440;-43
2023/08/02 02:21:31;;;;;;;25.27;23.90;;;;;;;;;;5034106;28;20498;-43
2023/08/02 02:23:59;;;;;;;24.00;22.90;;;;;;;;;;5033049;28;20483;-43
2023/08/02 02:26:27;;;;;;;23.20;22.30;;;;;;;;;;5033800;28;20575;-44
2023/08/02 02:28:54;;;;;;;23.93;23.00;;;;;;;;;;5033978;28;20437;-42
2023/08/02 02:31:23;;;;;;;24.40;23.10;;;;;;;;;;5033777;28;20486;-45
2023/08/02 02:33:50;;;;;;;23.90;22.90;;;;;;;;;;5033365;28;20439;-44
2023/08/02 02:36:18;;;;;;;24.17;23.07;;;;;;;;;;5033875;28;20833;-43
2023/08/02 02:38:45;;;;;;;25.90;24.03;;;;;;;;;;5033927;28;20436;-42
2023/08/02 02:41:13;;;;;;;26.60;25.40;;;;;;;;;;5033501;28;20956;-45
2023/08/02 02:43:40;;;;;;;24.93;23.70;;;;;;;;;;5033351;28;20509;-45
2023/08/02 02:46:08;;;;;;;26.83;25.63;;;;;;;;;;5033625;28;20472;-44
2023/08/02 02:48:37;;;;;;;26.17;24.70;;;;;;;;;;5033442;28;20432;-42
2023/08/02 02:51:04;;;;;;;26.30;25.00;;;;;;;;;;5033659;28;20506;-43
2023/08/02 02:53:32;;;;;;;25.83;24.40;;;;;;;;;;5033604;28;20867;-43
2023/08/02 02:55:59;;;;;;;27.30;26.00;;;;;;;;;;5032867;28;20471;-44
2023/08/02 02:58:27;;;;;;;26.50;25.17;;;;;;;;;;5033229;28;20958;-43
2023/08/02 03:00:56;;;;;;;26.77;25.57;;;;;;;;;;5033537;28;20521;-44
2023/08/02 03:03:24;;;;;;;27.70;26.10;;;;;;;;;;5033090;28;20459;-43
2023/08/02 03:05:54;;;;;;;26.83;25.50;;;;;;;;;;5032578;28;20514;-44
2023/08/02 03:08:22;;;;;;;27.40;25.70;;;;;;;;;;5033168;28;20906;-43
2023/08/02 03:10:49;;;;;;;27.47;25.97;;;;;;;;;;5033103;28;20459;-43
2023/08/02 03:13:17;;;;;;;26.80;25.50;;;;;;;;;;5033275;28;20470;-44
2023/08/02 03:15:44;;;;;;;27.40;26.10;;;;;;;;;;5032366;28;20471;-43
2023/08/02 03:18:12;;;;;;;28.70;27.17;;;;;;;;;;5033070;28;20539;-44
2023/08/02 03:20:40;;;;;;;27.53;26.33;;;;;;;;;;5032812;28;20436;-45
2023/08/02 03:23:09;;;;;;;29.10;27.80;;;;;;;;;;5032716;28;20851;-43
2023/08/02 03:25:36;;;;;;;29.30;27.90;;;;;;;;;;5032418;28;20567;-47
2023/08/02 03:28:04;;;;;;;28.23;26.60;;;;;;;;;;5032986;28;20432;-43
2023/08/02 03:30:31;;;;;;;27.63;26.43;;;;;;;;;;5033047;28;20587;-43
2023/08/02 03:32:59;;;;;;;30.20;28.70;;;;;;;;;;5032449;28;20432;-43
2023/08/02 03:35:27;;;;;;;30.20;28.50;;;;;;;;;;5031956;28;20460;-44
2023/08/02 03:37:54;;;;;;;27.27;25.77;;;;;;;;;;5032535;28;20482;-43
2023/08/02 03:40:23;;;;;;;27.60;25.80;;;;;;;;;;5032965;28;20510;-43
2023/08/02 03:42:51;;;;;;;28.20;26.70;;;;;;;;;;5032541;28;20432;-43
2023/08/02 03:45:18;;;;;;;26.47;25.10;;;;;;;;;;5031975;28;20543;-47
2023/08/02 03:47:46;;;;;;;28.40;26.87;;;;;;;;;;5032611;28;20455;-43
2023/08/02 03:50:13;;;;;;;28.60;27.10;;;;;;;;;;5032471;28;20440;-45
2023/08/02 03:52:41;;;;;;;27.50;25.53;;;;;;;;;;5032112;28;20930;-44
2023/08/02 03:55:08;;;;;;;27.37;26.00;;;;;;;;;;5031741;28;20994;-42
2023/08/02 03:57:37;;;;;;;28.63;27.23;;;;;;;;;;5032413;28;20432;-44
2023/08/02 04:00:06;;;;;;;26.10;24.70;;;;;;;;;;5032140;28;20444;-42
2023/08/02 04:02:33;;;;;;;26.10;24.83;;;;;;;;;;5032096;28;20478;-45
2023/08/02 04:05:01;;;;;;;27.83;26.20;;;;;;;;;;5031218;28;20468;-46
2023/08/02 04:07:28;;;;;;;26.43;24.87;;;;;;;;;;5032074;28;20499;-45
2023/08/02 04:09:56;;;;;;;28.07;26.57;;;;;;;;;;5032202;28;20432;-43
2023/08/02 04:12:23;;;;;;;28.07;26.83;;;;;;;;;;5031713;28;20503;-44
2023/08/02 04:14:52;;;;;;;27.23;25.67;;;;;;;;;;5031502;28;20460;-45
2023/08/02 04:17:20;;;;;;;25.93;24.63;;;;;;;;;;5032014;28;20811;-45
2023/08/02 04:19:48;;;;;;;24.50;23.47;;;;;;;;;;5031928;28;20517;-42
2023/08/02 04:22:15;;;;;;;24.30;23.20;;;;;;;;;;5031620;28;20448;-43
2023/08/02 04:24:43;;;;;;;27.63;25.70;;;;;;;;;;5031225;28;20464;-44
2023/08/02 04:27:10;;;;;;;27.50;26.23;;;;;;;;;;5031754;28;20906;-44
2023/08/02 04:29:38;;;;;;;27.77;26.23;;;;;;;;;;5031904;28;20467;-42
2023/08/02 04:32:07;;;;;;;27.40;26.10;;;;;;;;;;5031349;28;20440;-43
2023/08/02 04:34:34;;;;;;;25.97;24.47;;;;;;;;;;5030500;28;20468;-44
2023/08/02 04:37:02;;;;;;;26.07;24.53;;;;;;;;;;5031999;28;20510;-43
2023/08/02 04:39:29;;;;;;;28.43;26.50;;;;;;;;;;5031737;28;20839;-44
2023/08/02 04:42:00;;;;;;;25.87;23.80;;;;;;;;;;5031325;28;20941;-42
2023/08/02 04:44:27;;;;;;;22.20;21.10;;;;;;;;;;5030879;28;20473;-44
2023/08/02 04:46:55;;;;;;;22.33;21.10;;;;;;;;;;5031311;28;20483;-44
2023/08/02 04:49:24;;;;;;;20.50;19.50;;;;;;;;;;5031429;28;20490;-42
2023/08/02 04:51:52;;;;;;;19.07;18.07;;;;;;;;;;5031448;28;20468;-43
2023/08/02 04:54:19;;;;;;;20.13;18.70;;;;;;;;;;5030984;28;20487;-48
2023/08/02 04:56:47;;;;;;;17.93;17.10;;;;;;;;;;5031382;28;20436;-43
2023/08/02 04:59:14;;;;;;;19.50;18.70;;;;;;;;;;5031330;28;20436;-43
2023/08/02 05:01:42;;;;;;;19.37;18.50;;;;;;;;;;5031255;28;20439;-43
2023/08/02 05:04:10;;;;;;;18.97;18.07;;;;;;;;;;5030748;28;20539;-46
2023/08/02 05:06:39;;;;;;;20.10;19.20;;;;;;;;;;5031387;28;20549;-47
2023/08/02 05:09:07;;;;;;;18.30;17.50;;;;;;;;;;5031521;28;20534;-45
2023/08/02 05:11:36;;;;;;;19.00;18.20;;;;;;;;;;5031288;28;20490;-44
2023/08/02 05:14:04;;;;;;;17.87;17.10;;;;;;;;;;5030621;28;20460;-44
2023/08/02 05:16:31;;;;;;;19.27;18.23;;;;;;;;;;5030798;28;20910;-43
2023/08/02 05:18:59;;;;;;;16.40;15.80;;;;;;;;;;5031473;28;20435;-46
2023/08/02 05:21:26;;;;;;;16.63;16.00;;;;;;;;;;5031122;28;20424;-47
2023/08/02 05:23:55;;;;;;;17.23;16.20;;;;;;;;;;5030657;28;20980;-45
2023/08/02 05:26:23;;;;;;;14.70;14.10;;;;;;;;;;5030950;28;20941;-46
2023/08/02 05:28:51;;;;;;;16.67;16.00;;;;;;;;;;5031020;28;20431;-49
2023/08/02 05:31:19;;;;;;;14.37;13.70;;;;;;;;;;5031065;28;21096;-43
2023/08/02 05:33:47;;;;;;;15.50;14.60;;;;;;;;;;5030787;28;20943;-47
2023/08/02 05:36:15;;;;;;;14.30;13.70;;;;;;;;;;5030947;28;20775;-45
2023/08/02 05:38:43;;;;;;;12.80;11.90;;;;;;;;;;5030446;28;20467;-45
2023/08/02 05:41:12;;;;;;;12.23;11.23;;;;;;;;;;5031404;28;20774;-43
2023/08/02 05:43:42;;;;;;;9.00;8.60;;;;;;;;;;5031985;28;20486;-43
2023/08/02 05:46:09;;;;;;;7.70;7.33;;;;;;;;;;5034823;28;20494;-43
2023/08/02 05:48:37;;;;;;;8.27;7.50;;;;;;;;;;5034858;28;20555;-45
2023/08/02 05:51:05;;;;;;;6.80;6.40;;;;;;;;;;5034962;28;20189;-43
2023/08/02 05:53:32;;;;;;;7.60;7.20;;;;;;;;;;5034293;28;20655;-42
2023/08/02 05:56:00;;;;;;;7.67;7.17;;;;;;;;;;5034030;28;20221;-43
2023/08/02 05:58:28;;;;;;;6.70;6.40;;;;;;;;;;5034403;28;20682;-44
2023/08/02 06:00:56;;;;;;;6.90;6.70;;;;;;;;;;5034329;28;20691;-42
2023/08/02 06:03:24;;;;;;;5.68;5.38;;;;;;;;;;5034234;28;20647;-42
2023/08/02 06:05:51;;;;;;;6.83;6.07;;;;;;;;;;5033496;28;20263;-42
2023/08/02 06:08:19;;;;;;;5.47;5.18;;;;;;;;;;5034297;28;20224;-43
2023/08/02 06:10:46;;;;;;;7.10;6.40;;;;;;;;;;5034156;28;20682;-43
2023/08/02 06:13:14;;;;;;;6.35;6.07;;;;;;;;;;5034178;28;20204;-42
2023/08/02 06:15:43;;;;;;;7.43;6.23;;;;;;;;;;5033507;28;20225;-42
2023/08/02 06:18:10;;;;;;;6.60;6.20;;;;;;;;;;5034059;28;20559;-42
2023/08/02 06:20:38;;;;;;;7.10;6.70;;;;;;;;;;5034173;28;21143;-42
2023/08/02 06:23:05;;;;;;;6.37;6.07;;;;;;;;;;5033883;28;20482;-42
2023/08/02 06:25:33;;;;;;;6.83;6.43;;;;;;;;;;5033568;28;20464;-42
2023/08/02 06:28:00;;;;;;;7.47;6.87;;;;;;;;;;5033819;28;20899;-44
2023/08/02 06:30:28;;;;;;;7.40;7.00;;;;;;;;;;5033804;28;20806;-42
2023/08/02 06:32:57;;;;;;;6.93;6.53;;;;;;;;;;5033409;28;20505;-45
2023/08/02 06:35:24;;;;;;;7.50;7.00;;;;;;;;;;5033279;28;20920;-44
2023/08/02 06:37:52;;;;;;;8.07;7.47;;;;;;;;;;5033630;28;20482;-42
2023/08/02 06:40:20;;;;;;;7.43;6.93;;;;;;;;;;5033538;28;20436;-41
2023/08/02 06:42:47;;;;;;;8.07;7.23;;;;;;;;;;5033805;28;20486;-43
2023/08/02 06:45:15;;;;;;;7.60;6.90;;;;;;;;;;5033189;28;20470;-43
2023/08/02 06:47:42;;;;;;;7.63;7.03;;;;;;;;;;5033613;28;20471;-43
2023/08/02 06:50:12;;;;;;;7.30;7.00;;;;;;;;;;5033349;28;20439;-40
2023/08/02 06:52:39;;;;;;;6.57;6.03;;;;;;;;;;5033235;28;20485;-41
2023/08/02 06:55:07;;;;;;;7.57;6.97;;;;;;;;;;5032570;28;20467;-42
2023/08/02 06:57:34;;;;;;;6.40;6.13;;;;;;;;;;5033600;28;20497;-42
2023/08/02 07:00:02;;;;;;;7.23;6.80;;;;;;;;;;5033103;28;20497;-45
2023/08/02 07:02:30;;;;;;;5.73;5.30;;;;;;;;;;5033331;28;20513;-42
2023/08/02 07:04:57;;;;;;;6.20;5.90;;;;;;;;;;5032524;28;20897;-42
2023/08/02 07:07:26;;;;;;;6.43;6.10;;;;;;;;;;5033188;28;20499;-42
2023/08/02 07:09:54;;;;;;;6.70;6.30;;;;;;;;;;5033087;28;20432;-42
2023/08/02 07:12:21;;;;;;;7.40;7.00;;;;;;;;;;5032804;28;20485;-43
2023/08/02 07:14:49;;;;;;;6.87;6.57;;;;;;;;;;5032290;28;20486;-43
2023/08/02 07:17:16;;;;;;;6.90;6.47;;;;;;;;;;5033171;28;20443;-43
2023/08/02 07:19:44;;;;;;;5.90;5.57;;;;;;;;;;5033002;28;20439;-41
2023/08/02 07:22:17;;;;;;;6.20;5.80;;;;;;;;;;5032668;28;20447;-41
2023/08/02 07:24:46;;;;;;;6.13;5.73;;;;;;;;;;5032415;28;20467;-46
2023/08/02 07:27:13;;;;;;;8.00;6.27;;;;;;;;;;5032855;28;20435;-44
2023/08/02 07:29:41;;;;;;;6.13;5.53;;;;;;;;;;5032750;28;20475;-43
2023/08/02 07:32:09;;;;;;;5.73;5.43;;;;;;;;;;5032741;28;20459;-44
2023/08/02 07:34:36;;;;;;;5.60;5.20;;;;;;;;;;5032070;28;20513;-41
2023/08/02 07:37:04;;;;;;;6.67;5.70;;;;;;;;;;5032454;28;21081;-43
2023/08/02 07:39:32;;;;;;;6.40;6.10;;;;;;;;;;5032325;28;20999;-41
2023/08/02 07:42:01;;;;;;;6.70;6.10;;;;;;;;;;5032356;28;20436;-43
2023/08/02 07:44:28;;;;;;;5.47;5.20;;;;;;;;;;5032072;28;20555;-41
2023/08/02 07:46:55;;;;;;;6.40;6.00;;;;;;;;;;5032214;28;20431;-42
2023/08/02 07:49:23;;;;;;;6.83;6.17;;;;;;;;;;5032382;28;20479;-41
2023/08/02 07:51:51;;;;;;;6.63;6.33;;;;;;;;;;5032244;28;20439;-41
2023/08/02 07:54:18;;;;;;;5.97;5.73;;;;;;;;;;5031623;28;20542;-42
2023/08/02 07:56:46;;;;;;;6.40;5.77;;;;;;;;;;5032315;28;20436;-42
2023/08/02 07:59:15;;;;;;;6.90;6.40;;;;;;;;;;5032451;28;20482;-41
2023/08/02 08:01:43;;;;;;;5.80;5.50;;;;;;;;;;5032213;28;20431;-41
2023/08/02 08:04:11;;;;;;;6.10;5.50;;;;;;;;;;5031428;28;20471;-44
2023/08/02 08:06:39;;;;;;;7.30;5.57;;;;;;;;;;5031525;28;20454;-42
2023/08/02 08:09:07;;;;;;;6.77;6.17;;;;;;;;;;5032238;28;20566;-42
2023/08/02 08:11:34;;;;;;;7.20;6.60;;;;;;;;;;5032014;28;20431;-41
2023/08/02 08:14:02;;;;;;;6.50;6.10;;;;;;;;;;5031628;28;20472;-41
2023/08/02 08:16:30;;;;;;;6.27;5.83;;;;;;;;;;5031890;28;20428;-42
2023/08/02 08:18:58;;;;;;;6.30;5.90;;;;;;;;;;5031782;28;20479;-44
2023/08/02 08:21:26;;;;;;;6.23;5.63;;;;;;;;;;5031541;28;20467;-44
2023/08/02 08:23:54;;;;;;;6.97;6.37;;;;;;;;;;5031275;28;20482;-43
2023/08/02 08:26:23;;;;;;;6.37;6.03;;;;;;;;;;5031737;28;21008;-44
2023/08/02 08:28:51;;;;;;;6.63;6.23;;;;;;;;;;5030988;28;20913;-42
2023/08/02 08:31:19;;;;;;;6.27;5.97;;;;;;;;;;5031748;28;20431;-43
2023/08/02 08:33:47;;;;;;;5.60;5.40;;;;;;;;;;5028376;28;20514;-41
2023/08/02 08:36:15;;;;;;;5.30;5.10;;;;;;;;;;5028569;28;20566;-43
2023/08/02 08:38:43;;;;;;;5.10;4.90;;;;;;;;;;5030229;28;20497;-42
2023/08/02 08:41:15;;;;;;;5.33;5.13;;;;;;;;;;5030657;28;20929;-42
2023/08/02 08:43:43;;;;;;;5.10;4.90;;;;;;;;;;5020395;28;20861;-45
2023/08/02 08:46:12;;;;;;;5.23;4.83;;;;;;;;;;5030247;28;20464;-43
2023/08/02 08:48:39;;;;;;;4.80;4.60;;;;;;;;;;5029753;28;20475;-42
2023/08/02 08:51:09;;;;;;;4.80;4.60;;;;;;;;;;5030956;28;20494;-43
2023/08/02 08:53:40;;;;;;;4.73;4.53;;;;;;;;;;5029048;28;20493;-42
2023/08/02 08:56:07;;;;;;;5.20;4.80;;;;;;;;;;5029925;28;20451;-43
2023/08/02 08:58:36;;;;;;;4.93;4.73;;;;;;;;;;5029306;28;21010;-42
2023/08/02 09:01:04;;;;;;;4.50;4.33;;;;;;;;;;5030916;28;20475;-42
2023/08/02 09:03:32;;;;;;;5.10;4.90;;;;;;;;;;5029046;28;20929;-46
2023/08/02 09:06:00;;;;;;;4.60;4.50;;;;;;;;;;5027675;28;21169;-46
2023/08/02 09:08:30;;;;;;;4.00;3.90;;;;;;;;;;5028682;28;20475;-42
2023/08/02 09:10:58;;;;;;;4.47;4.27;;;;;;;;;;5030050;28;20474;-42
2023/08/02 09:13:27;;;;;;;4.30;4.13;;;;;;;;;;5028402;28;20439;-42
2023/08/02 09:16:16;;;;;;;4.17;3.90;;;;;;;;;;5027516;28;20466;-45
2023/08/02 09:18:44;;;;;;;4.50;4.30;;;;;;;;;;5011130;28;20440;-43
2023/08/02 09:21:14;;;;;;;4.73;4.50;;;;;;;;;;5013696;28;21002;-42
2023/08/02 09:23:48;;;;;;;4.60;4.40;;;;;;;;;;5013864;28;20459;-42
2023/08/02 09:26:17;;;;;;;4.67;4.47;;;;;;;;;;5014847;28;20791;-43
2023/08/02 09:29:00;;;;;;;4.90;4.70;;;;;;;;;;5014424;28;20468;-44
2023/08/02 09:31:28;;;;;;;4.50;4.40;;;;;;;;;;5013946;28;20915;-43
2023/08/02 09:33:56;;;;;;;4.20;3.93;;;;;;;;;;5014081;28;22002;-42
2023/08/02 09:36:25;;;;;;;3.93;3.83;;;;;;;;;;5014341;28;20436;-45
2023/08/02 09:38:58;;;;;;;4.10;4.00;;;;;;;;;;5014534;28;20528;-45
2023/08/02 09:41:26;;;;;;;4.23;4.03;;;;;;;;;;5014044;28;20436;-43
2023/08/02 09:43:57;;;;;;;4.20;4.00;;;;;;;;;;5013837;28;21572;-44
2023/08/02 09:46:26;;;;;;;3.73;3.63;;;;;;;;;;5014299;28;20436;-44
2023/08/02 09:48:54;;;;;;;4.03;3.93;;;;;;;;;;5014071;28;20468;-43
2023/08/02 09:51:21;;;;;;;3.67;3.40;;;;;;;;;;5014238;28;20911;-43
2023/08/02 09:53:55;;;;;;;4.20;4.03;;;;;;;;;;5014061;28;20436;-43
2023/08/02 09:56:25;;;;;;;4.67;4.47;;;;;;;;;;5014304;28;20431;-42
2023/08/02 09:58:54;;;;;;;5.10;4.90;;;;;;;;;;5013193;28;20443;-43
2023/08/02 10:01:23;;;;;;;4.27;4.10;;;;;;;;;;5013879;28;20527;-44
2023/08/02 10:03:55;;;;;;;5.00;4.90;;;;;;;;;;5015093;28;20478;-43
2023/08/02 10:06:25;;;;;;;5.10;4.80;;;;;;;;;;5033244;28;20490;-43
2023/08/02 10:08:55;;;;;;;5.23;5.00;;;;;;;;;;5033631;28;20467;-45
2023/08/02 10:11:23;;;;;;;4.73;4.53;;;;;;;;;;5033635;28;20806;-44
2023/08/02 10:13:52;;;;;;;5.40;4.90;;;;;;;;;;5033182;28;20436;-44
2023/08/02 10:16:21;;;;;;;5.27;4.87;;;;;;;;;;5033431;28;20957;-44
2023/08/02 10:18:51;;;;;;;5.20;4.90;;;;;;;;;;5033430;28;20518;-42
2023/08/02 10:21:19;;;;;;;5.10;4.80;;;;;;;;;;5033786;28;20925;-45
2023/08/02 10:23:47;;;;;;;4.70;4.50;;;;;;;;;;5033162;28;20444;-43
2023/08/02 10:26:16;;;;;;;5.10;4.80;;;;;;;;;;5033879;28;20458;-44
2023/08/02 10:28:43;;;;;;;5.47;5.13;;;;;;;;;;5033235;28;20474;-42
2023/08/02 10:31:12;;;;;;;5.10;4.80;;;;;;;;;;5033772;28;20522;-42
2023/08/02 10:33:40;;;;;;;4.50;4.30;;;;;;;;;;5033517;28;20463;-43
2023/08/02 10:36:08;;;;;;;4.07;3.87;;;;;;;;;;5033734;28;20965;-42
2023/08/02 10:38:49;;;;;;;5.07;4.67;;;;;;;;;;5033646;28;20471;-45
2023/08/02 10:41:17;;;;;;;4.60;4.30;;;;;;;;;;5033660;28;20431;-44
2023/08/02 10:44:04;;;;;;;4.60;4.40;;;;;;;;;;5033230;28;20482;-43
2023/08/02 10:46:33;;;;;;;4.40;4.20;;;;;;;;;;5021786;28;20523;-45
2023/08/02 10:49:16;;;;;;;4.60;4.30;;;;;;;;;;5033574;28;20440;-45
2023/08/02 10:51:45;;;;;;;4.70;4.40;;;;;;;;;;5033314;28;20436;-43
2023/08/02 10:54:14;;;;;;;4.17;3.97;;;;;;;;;;5033163;28;20563;-42
2023/08/02 10:57:04;;;;;;;6.40;3.90;;;;;;;;;;5033342;28;21012;-45
2023/08/02 10:59:39;;;;;;;3.60;3.37;;;;;;;;;;5022848;28;20441;-44
2023/08/02 11:02:08;;;;;;;4.43;3.80;;;;;;;;;;5033159;28;20435;-45
2023/08/02 11:04:37;;;;;;;5.83;4.23;;;;;;;;;;5032317;28;20522;-42
2023/08/02 11:07:12;;;;;;;4.10;3.80;;;;;;;;;;5032945;28;20432;-42
2023/08/02 11:09:40;;;;;;;4.10;3.80;;;;;;;;;;5033277;28;20478;-43
2023/08/02 11:12:11;;;;;;;3.83;3.63;;;;;;;;;;5032926;28;20460;-43
2023/08/02 11:14:38;;;;;;;4.53;3.50;;;;;;;;;;5032576;28;20460;-42
2023/08/02 11:17:09;;;;;;;3.83;3.43;;;;;;;;;;5032837;28;20435;-44
2023/08/02 11:19:39;;;;;;;4.50;4.20;;;;;;;;;;5033030;28;20704;-43
2023/08/02 11:22:07;;;;;;;4.27;3.97;;;;;;;;;;5032395;28;20532;-45
2023/08/02 11:24:41;;;;;;;4.00;3.80;;;;;;;;;;5032179;28;20460;-43
2023/08/02 11:27:09;;;;;;;4.30;4.00;;;;;;;;;;5033058;28;20854;-45
2023/08/02 11:29:36;;;;;;;4.97;4.57;;;;;;;;;;5032558;28;20467;-46
2023/08/02 11:32:05;;;;;;;5.20;4.90;;;;;;;;;;5032775;28;20432;-42
2023/08/02 11:34:37;;;;;;;4.10;3.90;;;;;;;;;;5032168;28;20513;-44
2023/08/02 11:37:05;;;;;;;5.63;5.13;;;;;;;;;;5032767;28;20426;-42
2023/08/02 11:39:34;;;;;;;4.97;4.57;;;;;;;;;;5032352;28;20443;-45
2023/08/02 11:42:03;;;;;;;5.20;4.03;;;;;;;;;;5031591;28;20809;-42
2023/08/02 11:44:30;;;;;;;5.20;4.90;;;;;;;;;;5031766;28;21183;-42
2023/08/02 11:46:58;;;;;;;5.03;4.73;;;;;;;;;;5032676;28;20490;-42
2023/08/02 11:49:25;;;;;;;5.07;4.77;;;;;;;;;;5032252;28;20454;-43
2023/08/02 11:51:54;;;;;;;5.13;4.73;;;;;;;;;;5032306;28;20861;-43
2023/08/02 11:54:22;;;;;;;4.93;4.50;;;;;;;;;;5031794;28;20555;-45
2023/08/02 11:56:49;;;;;;;6.30;5.10;;;;;;;;;;5032297;28;20869;-42
2023/08/02 11:59:17;;;;;;;5.50;5.20;;;;;;;;;;5032199;28;20490;-43
2023/08/02 12:01:44;;;;;;;6.30;5.30;;;;;;;;;;5032013;28;20428;-43
2023/08/02 12:04:12;;;;;;;5.30;5.00;;;;;;;;;;5031297;28;20466;-44
2023/08/02 12:06:47;;;;;;;5.03;4.83;;;;;;;;;;5031862;28;20438;-43
2023/08/02 12:09:16;;;;;;;5.00;4.70;;;;;;;;;;5032066;28;20513;-42
2023/08/02 12:11:44;;;;;;;6.13;4.77;;;;;;;;;;5031724;28;20471;-44
2023/08/02 12:14:11;;;;;;;5.87;5.40;;;;;;;;;;5031613;28;20464;-47
2023/08/02 12:16:39;;;;;;;5.60;5.13;;;;;;;;;;5031765;28;20439;-43
2023/08/02 12:19:08;;;;;;;5.60;5.07;;;;;;;;;;5032393;28;20438;-42
2023/08/02 12:21:36;;;;;;;6.07;4.60;;;;;;;;;;5031802;28;20463;-45
2023/08/02 12:24:12;;;;;;;5.30;4.90;;;;;;;;;;5030483;28;20463;-42
2023/08/02 12:26:41;;;;;;;6.10;5.50;;;;;;;;;;5031813;28;20485;-42
2023/08/02 12:29:09;;;;;;;5.60;5.20;;;;;;;;;;5031978;28;20479;-42
2023/08/02 12:31:43;;;;;;;7.90;5.70;;;;;;;;;;5031698;28;20561;-42
2023/08/02 12:34:11;;;;;;;5.40;5.10;;;;;;;;;;5031379;28;20506;-41
2023/08/02 12:36:39;;;;;;;6.30;5.77;;;;;;;;;;5031691;28;20475;-41
2023/08/02 12:39:07;;;;;;;6.20;5.70;;;;;;;;;;5031918;28;20522;-44
2023/08/02 12:41:35;;;;;;;5.60;5.20;;;;;;;;;;5031379;28;20498;-45
2023/08/02 12:44:04;;;;;;;7.23;6.13;;;;;;;;;;5031113;28;20521;-46
2023/08/02 12:46:32;;;;;;;6.17;5.70;;;;;;;;;;5031816;28;20453;-44
2023/08/02 12:49:00;;;;;;;5.33;5.03;;;;;;;;;;5031588;28;20994;-43
2023/08/02 12:51:27;;;;;;;5.80;5.40;;;;;;;;;;5031320;28;20470;-43
2023/08/02 12:53:55;;;;;;;7.23;6.37;;;;;;;;;;5034906;28;20522;-45
2023/08/02 12:56:22;;;;;;;8.37;6.57;;;;;;;;;;5035428;28;20435;-43
2023/08/02 12:58:50;;;;;;;7.70;7.00;;;;;;;;;;5035747;28;20865;-43
2023/08/02 13:01:19;;;;;;;7.03;6.43;;;;;;;;;;5035552;28;20424;-43
2023/08/02 13:03:46;;;;;;;7.93;7.07;;;;;;;;;;5034953;28;20817;-46
2023/08/02 13:06:14;;;;;;;6.60;6.00;;;;;;;;;;5035210;28;20451;-45
2023/08/02 13:08:42;;;;;;;7.77;7.13;;;;;;;;;;5035310;28;20435;-44
2023/08/02 13:11:09;;;;;;;6.77;6.17;;;;;;;;;;5035498;28;20478;-45
2023/08/02 13:13:37;;;;;;;6.87;6.13;;;;;;;;;;5034711;28;20440;-43
2023/08/02 13:16:05;;;;;;;5.70;5.20;;;;;;;;;;5035259;28;20454;-43
2023/08/02 13:18:34;;;;;;;5.80;5.40;;;;;;;;;;5035096;28;20428;-42
2023/08/02 13:21:01;;;;;;;6.13;5.70;;;;;;;;;;5035229;28;20436;-43
2023/08/02 13:23:29;;;;;;;6.30;5.70;;;;;;;;;;5034761;28;20505;-42
2023/08/02 13:25:57;;;;;;;6.67;6.17;;;;;;;;;;5034508;28;20475;-43
2023/08/02 13:28:25;;;;;;;6.40;5.90;;;;;;;;;;5031061;28;20454;-43
2023/08/02 13:30:58;;;;;;;6.37;5.77;;;;;;;;;;5033642;28;21061;-43
2023/08/02 13:33:25;;;;;;;7.03;6.47;;;;;;;;;;5032918;28;20432;-43
2023/08/02 13:35:54;;;;;;;7.13;6.53;;;;;;;;;;5032297;28;20525;-46
2023/08/02 13:38:22;;;;;;;7.97;6.70;;;;;;;;;;5033154;28;20431;-45
2023/08/02 13:40:51;;;;;;;6.93;6.37;;;;;;;;;;5032658;28;20547;-42
2023/08/02 13:43:18;;;;;;;7.83;7.03;;;;;;;;;;5030216;28;20841;-47
2023/08/02 13:45:46;;;;;;;6.43;6.03;;;;;;;;;;5029365;28;20548;-44
2023/08/02 13:48:14;;;;;;;7.87;6.97;;;;;;;;;;5030612;28;20416;-43
2023/08/02 13:50:42;;;;;;;6.90;6.10;;;;;;;;;;5031131;28;20436;-44
2023/08/02 13:53:11;;;;;;;6.70;6.07;;;;;;;;;;5030211;28;20955;-42
2023/08/02 13:55:38;;;;;;;9.23;6.40;;;;;;;;;;5030123;28;21020;-43
2023/08/02 13:58:06;;;;;;;8.37;6.83;;;;;;;;;;5030533;28;20463;-42
2023/08/02 14:00:33;;;;;;;6.20;5.80;;;;;;;;;;5030623;28;20497;-44
2023/08/02 14:03:01;;;;;;;9.13;6.10;;;;;;;;;;5029656;28;21009;-44
2023/08/02 14:05:28;;;;;;;8.07;7.17;;;;;;;;;;5030527;28;20470;-42
2023/08/02 14:07:56;;;;;;;6.83;6.23;;;;;;;;;;5031983;28;20431;-42
2023/08/02 14:10:25;;;;;;;8.33;6.60;;;;;;;;;;5032702;28;20442;-43
2023/08/02 14:12:53;;;;;;;7.37;6.77;;;;;;;;;;5031766;28;20596;-45
2023/08/02 14:15:20;;;;;;;6.97;6.13;;;;;;;;;;5031106;28;20475;-43
2023/08/02 14:17:48;;;;;;;6.40;6.00;;;;;;;;;;5031586;28;20435;-42
2023/08/02 14:20:15;;;;;;;7.60;6.70;;;;;;;;;;5032023;28;20447;-43
2023/08/02 14:22:43;;;;;;;6.60;6.10;;;;;;;;;;5030622;28;20525;-44
2023/08/02 14:25:11;;;;;;;7.93;6.20;;;;;;;;;;5031040;28;20460;-43
2023/08/02 14:27:40;;;;;;;6.87;6.37;;;;;;;;;;5030981;28;20926;-44
2023/08/02 14:30:08;;;;;;;8.77;5.90;;;;;;;;;;5032393;28;21129;-43
2023/08/02 14:32:35;;;;;;;6.93;6.33;;;;;;;;;;5031987;28;20471;-43
2023/08/02 14:35:03;;;;;;;7.97;6.43;;;;;;;;;;5031130;28;20526;-43
2023/08/02 14:37:30;;;;;;;7.57;6.90;;;;;;;;;;5031666;28;20436;-43
2023/08/02 14:39:58;;;;;;;7.47;6.77;;;;;;;;;;5031274;28;20438;-44